KAXN

Details ICAO KAXN
Name CHANDLER FLD
Region United States
Timezone America/Chicago (UTC-6.0)
Plans Departing 0
Arriving 0
Stats Elevation 1,425 ft / 434 m (AMSL)
Location 45.866295° -95.394560°
Runways 2
Magnetic Variation 1.939° E
Sunrise 2017-01-17 13:58:48 UTC / 2017-01-17 07:58:48 Local
Sunset 2017-01-17 23:06:58 UTC / 2017-01-17 17:06:58 Local
Advertisement - Login to hide

Runways

ID Width Length Bearing (true) Bearing (mag) Surface Threshold Offset Overrun Length
04 75 ft / 23 m 4,094 ft / 1,248 m 49.20° 47.26° Asphalt 0 ft / 0 m 0 ft / 0 m
13 100 ft / 30 m 5,095 ft / 1,553 m 139.39° 137.45° Asphalt 0 ft / 0 m 0 ft / 0 m
22 75 ft / 23 m 4,094 ft / 1,248 m 229.21° 227.27° Asphalt 0 ft / 0 m 0 ft / 0 m
31 100 ft / 30 m 5,095 ft / 1,553 m 319.40° 317.46° Asphalt 0 ft / 0 m 0 ft / 0 m

Approach Navaids

Runway Type Ident Frequency Range Bearing (true) Bearing (mag) Slope Elevation
31 Localiser IEEZ 110.50 MHz 18 nm / 33 km 319.41° 317.47° - 1,406 ft / 429 m (AMSL)
31 Glidescope IEEZ 110.50 MHz 10 nm / 19 km 319.40° 317.46° 3.00° 1,417 ft / 432 m (AMSL)

Map

Weather

Temperature
Clouds and Precipitation
Forecast for 2017-01-18 06:00 UTC. Updated 27 minutes ago
Winds

METAR

KAXN 180253Z AUTO 20009KT 9SM CLR M08/M09 A2990

TAF

KAXN 172327Z 1800/1824 21007KT P6SM FEW250

Frequencies

Recorded 118.37 MHz ASOS
Unicom 123.00 MHz CTAF/UNICOM
Warning: Do not use this data for real-world aviation or navigation. No guarantee of current accuracy is given.